Time;durP1;ratioP1;P1;durP2;ratioP2;P2;SDS_P1;SDS_P2;PMS_P1;PMS_P2;Temp;Humidity;BMP_temperature;BMP_pressure;BME280_temperature;BME280_humidity;BME280_pressure;Samples;Min_cycle;Max_cycle;Signal;HPM_P1;HPM_P2
2022/04/14 00:01:57;;;;;;;1.15;1.05;;;20.90;48.40;;;;;;5086190;27;43712;-59
2022/04/14 00:04:25;;;;;;;2.35;1.25;;;20.90;48.50;;;;;;5083567;27;44053;-60
2022/04/14 00:06:52;;;;;;;2.42;1.20;;;20.90;48.50;;;;;;5081177;27;43514;-59
2022/04/14 00:09:20;;;;;;;1.10;0.98;;;20.90;48.50;;;;;;5079783;27;43405;-59
2022/04/14 00:11:47;;;;;;;1.52;1.00;;;20.90;48.40;;;;;;5086180;27;43517;-60
2022/04/14 00:14:15;;;;;;;1.95;1.17;;;20.90;48.50;;;;;;5081945;27;45040;-59
2022/04/14 00:16:42;;;;;;;1.20;1.08;;;20.90;48.50;;;;;;5084172;27;43913;-59
2022/04/14 00:19:10;;;;;;;1.15;1.05;;;20.90;48.60;;;;;;5079812;28;43426;-60
2022/04/14 00:21:37;;;;;;;1.08;0.98;;;20.80;48.40;;;;;;5083103;27;43508;-59
2022/04/14 00:24:06;;;;;;;1.20;1.10;;;20.80;48.50;;;;;;5063787;27;43996;-59
2022/04/14 00:26:33;;;;;;;1.27;1.13;;;20.80;48.50;;;;;;5093476;27;43476;-59
2022/04/14 00:29:03;;;;;;;1.20;1.10;;;20.80;48.50;;;;;;5081831;27;43536;-60
2022/04/14 00:31:31;;;;;;;0.98;0.98;;;20.80;48.50;;;;;;5081377;27;43602;-59
2022/04/14 00:33:59;;;;;;;1.20;1.10;;;20.80;48.60;;;;;;5088048;27;44067;-59
2022/04/14 00:36:26;;;;;;;1.05;1.00;;;20.70;48.50;;;;;;5088217;27;43576;-60
2022/04/14 00:38:54;;;;;;;1.67;1.10;;;20.80;48.60;;;;;;5086635;27;43494;-60
2022/04/14 00:41:21;;;;;;;1.50;1.40;;;20.80;48.60;;;;;;5091630;27;43492;-59
2022/04/14 00:43:53;;;;;;;1.35;1.25;;;20.80;48.50;;;;;;5088943;27;43779;-59
2022/04/14 00:46:21;;;;;;;1.50;1.38;;;20.80;48.60;;;;;;5084097;28;43534;-59
2022/04/14 00:48:51;;;;;;;2.20;1.35;;;20.70;48.60;;;;;;5087016;27;43545;-59
2022/04/14 00:51:24;;;;;;;1.40;1.30;;;20.70;48.50;;;;;;5070474;28;43579;-59
2022/04/14 00:53:55;;;;;;;1.20;1.10;;;20.70;48.50;;;;;;5082966;27;43783;-59
2022/04/14 00:56:22;;;;;;;1.92;1.38;;;20.70;48.50;;;;;;5085762;27;43424;-59
2022/04/14 00:58:50;;;;;;;1.42;1.25;;;20.70;48.60;;;;;;5084524;27;43540;-60
2022/04/14 01:01:17;;;;;;;1.35;1.02;;;20.70;48.60;;;;;;5084126;27;43531;-59
2022/04/14 01:03:45;;;;;;;1.30;1.20;;;20.70;48.50;;;;;;5086675;27;44108;-59
2022/04/14 01:06:19;;;;;;;1.40;1.30;;;20.70;48.60;;;;;;5085544;27;43706;-60
2022/04/14 01:11:35;;;;;;;1.25;1.10;;;20.60;48.50;;;;;;5088728;27;43506;-59
2022/04/14 01:14:03;;;;;;;1.20;1.10;;;20.60;48.60;;;;;;5085041;27;44711;-59
2022/04/14 01:16:31;;;;;;;1.90;1.42;;;20.60;48.60;;;;;;5087437;27;44915;-59
2022/04/14 01:18:59;;;;;;;1.30;1.20;;;20.60;48.60;;;;;;5085934;27;43999;-59
2022/04/14 01:21:33;;;;;;;2.10;1.25;;;20.60;48.60;;;;;;5082812;27;43451;-60
2022/04/14 01:24:02;;;;;;;1.67;1.17;;;20.60;48.60;;;;;;5080448;27;43768;-59
2022/04/14 01:26:30;;;;;;;1.23;1.10;;;20.60;48.60;;;;;;5075172;27;44022;-60
2022/04/14 01:28:58;;;;;;;1.75;1.40;;;20.60;48.60;;;;;;5082097;27;44106;-59
2022/04/14 01:31:25;;;;;;;1.40;1.30;;;20.60;48.60;;;;;;5087934;27;43526;-60
2022/04/14 01:33:53;;;;;;;1.33;1.17;;;20.60;48.60;;;;;;5100983;27;44680;-59
2022/04/14 01:36:20;;;;;;;1.40;1.30;;;20.50;48.60;;;;;;5084466;27;43510;-59
2022/04/14 01:38:48;;;;;;;1.77;1.48;;;20.50;48.60;;;;;;5079770;27;43415;-59
2022/04/14 01:41:15;;;;;;;1.88;1.40;;;20.50;48.60;;;;;;5080394;27;43506;-60
2022/04/14 01:43:43;;;;;;;1.98;1.50;;;20.50;48.60;;;;;;5085546;27;44726;-59
2022/04/14 01:46:11;;;;;;;1.48;1.38;;;20.50;48.70;;;;;;5103350;27;43560;-60
2022/04/14 01:48:38;;;;;;;2.10;1.50;;;20.50;48.60;;;;;;5081906;27;43549;-59
2022/04/14 01:51:06;;;;;;;1.40;1.30;;;20.50;48.60;;;;;;5081966;28;43486;-59
2022/04/14 01:53:34;;;;;;;1.75;1.50;;;20.50;48.60;;;;;;5084463;27;44669;-60
2022/04/14 01:56:01;;;;;;;1.50;1.40;;;20.50;48.70;;;;;;5087674;27;43436;-59
2022/04/14 01:58:29;;;;;;;1.40;1.30;;;20.40;48.60;;;;;;5081755;27;43502;-59
2022/04/14 02:00:56;;;;;;;1.50;1.40;;;20.40;48.60;;;;;;5080429;28;44186;-59
2022/04/14 02:03:24;;;;;;;1.58;1.48;;;20.40;48.60;;;;;;5080227;27;45270;-60
2022/04/14 02:05:51;;;;;;;1.67;1.40;;;20.40;48.60;;;;;;5084362;27;43730;-59
2022/04/14 02:08:19;;;;;;;1.73;1.33;;;20.40;48.60;;;;;;5089028;27;43992;-60
2022/04/14 02:10:46;;;;;;;1.50;1.20;;;20.40;48.60;;;;;;5085897;27;43497;-60
2022/04/14 02:13:13;;;;;;;1.63;1.40;;;20.40;48.60;;;;;;5086459;27;44709;-59
2022/04/14 02:15:41;;;;;;;1.50;1.40;;;20.40;48.60;;;;;;5083730;27;43968;-59
2022/04/14 02:18:08;;;;;;;1.48;1.38;;;20.40;48.70;;;;;;5081038;27;43549;-60
2022/04/14 02:20:36;;;;;;;1.55;1.45;;;20.40;48.70;;;;;;5081984;27;43451;-59
2022/04/14 02:23:04;;;;;;;1.88;1.48;;;20.40;48.70;;;;;;5083528;27;44713;-60
2022/04/14 02:25:31;;;;;;;2.17;1.60;;;20.30;48.60;;;;;;5082232;27;44471;-60
2022/04/14 02:27:59;;;;;;;1.52;1.42;;;20.30;48.60;;;;;;5073640;27;43602;-60
2022/04/14 02:30:26;;;;;;;2.05;1.60;;;20.30;48.60;;;;;;5082334;27;43582;-59
2022/04/14 02:32:54;;;;;;;1.48;1.38;;;20.30;48.70;;;;;;5068042;28;47012;-60
2022/04/14 02:35:23;;;;;;;1.92;1.40;;;20.30;48.70;;;;;;5090026;27;43719;-59
2022/04/14 02:37:50;;;;;;;2.25;1.73;;;20.30;48.70;;;;;;5082281;27;43518;-60
2022/04/14 02:40:18;;;;;;;1.75;1.65;;;20.30;48.70;;;;;;5083662;27;43495;-60
2022/04/14 02:42:46;;;;;;;1.63;1.38;;;20.30;48.70;;;;;;5090452;27;43787;-60
2022/04/14 02:45:14;;;;;;;2.42;1.75;;;20.30;48.70;;;;;;5082804;27;43465;-60
2022/04/14 02:47:41;;;;;;;1.70;1.60;;;20.30;48.70;;;;;;5084092;27;44027;-59
2022/04/14 02:50:09;;;;;;;2.13;1.60;;;20.20;48.60;;;;;;5084697;27;43542;-60
2022/04/14 02:52:36;;;;;;;2.10;1.60;;;20.30;48.70;;;;;;5084092;27;44689;-59
2022/04/14 02:55:04;;;;;;;1.65;1.55;;;20.20;48.60;;;;;;5088454;27;43522;-60
2022/04/14 02:57:32;;;;;;;1.73;1.63;;;20.20;48.70;;;;;;5082032;27;43487;-60
2022/04/14 02:59:59;;;;;;;1.98;1.58;;;20.20;48.70;;;;;;5087038;27;43553;-60
2022/04/14 03:02:26;;;;;;;1.75;1.60;;;20.20;48.80;;;;;;5088719;27;44216;-59
2022/04/14 03:04:54;;;;;;;1.67;1.58;;;20.20;48.70;;;;;;5085046;27;43702;-59
2022/04/14 03:07:22;;;;;;;1.90;1.80;;;20.20;48.70;;;;;;5068079;28;43451;-60
2022/04/14 03:09:49;;;;;;;2.20;1.70;;;20.20;48.70;;;;;;5087389;27;43510;-59
2022/04/14 03:12:20;;;;;;;2.45;1.90;;;20.10;48.60;;;;;;5085214;27;44317;-60
2022/04/14 03:14:48;;;;;;;2.25;1.60;;;20.10;48.70;;;;;;5083802;27;44134;-59
2022/04/14 03:17:15;;;;;;;1.95;1.83;;;20.10;48.70;;;;;;5081754;27;43466;-59
2022/04/14 03:19:43;;;;;;;2.33;1.95;;;20.10;48.70;;;;;;5084170;27;43451;-60
2022/04/14 03:22:10;;;;;;;2.30;1.90;;;20.10;48.70;;;;;;5069715;28;43791;-60
2022/04/14 03:24:38;;;;;;;2.20;2.00;;;20.10;48.70;;;;;;5081449;27;43432;-59
2022/04/14 03:27:05;;;;;;;1.90;1.80;;;20.10;48.70;;;;;;5081090;27;43536;-59
2022/04/14 03:29:34;;;;;;;3.13;2.20;;;20.10;48.70;;;;;;5087652;27;43604;-59
2022/04/14 03:32:02;;;;;;;2.28;2.08;;;20.10;48.70;;;;;;5082110;27;44969;-59
2022/04/14 03:34:29;;;;;;;2.17;2.00;;;20.10;48.80;;;;;;5084698;27;43479;-59
2022/04/14 03:36:56;;;;;;;3.92;2.03;;;20.10;48.70;;;;;;5086603;27;43557;-60
2022/04/14 03:39:29;;;;;;;2.33;1.85;;;20.00;48.70;;;;;;5084416;27;43610;-59
2022/04/14 03:41:56;;;;;;;3.25;2.08;;;20.10;48.70;;;;;;5083518;27;44100;-60
2022/04/14 03:44:23;;;;;;;1.90;1.80;;;20.00;48.70;;;;;;5084821;27;43681;-60
2022/04/14 03:46:51;;;;;;;2.42;2.03;;;20.00;48.70;;;;;;5087066;27;43458;-60
2022/04/14 03:49:18;;;;;;;2.17;1.88;;;20.00;48.70;;;;;;5084195;27;43609;-59
2022/04/14 03:51:46;;;;;;;1.95;1.85;;;20.00;48.70;;;;;;5085166;27;44758;-60
2022/04/14 03:54:13;;;;;;;3.30;2.20;;;20.00;48.70;;;;;;5087984;27;43689;-60
2022/04/14 03:56:41;;;;;;;2.15;1.95;;;20.00;48.80;;;;;;5083850;27;43494;-59
2022/04/14 03:59:09;;;;;;;2.05;1.90;;;20.00;48.80;;;;;;5081682;27;43530;-59
2022/04/14 04:01:36;;;;;;;3.30;2.30;;;20.00;48.70;;;;;;5084202;27;43791;-60
2022/04/14 04:04:04;;;;;;;2.42;2.20;;;20.00;48.70;;;;;;5085578;27;43528;-60
2022/04/14 04:06:32;;;;;;;3.30;2.00;;;19.90;48.70;;;;;;5087240;27;43453;-60
2022/04/14 04:08:59;;;;;;;2.20;2.00;;;19.90;48.70;;;;;;5085621;27;43572;-60
2022/04/14 04:11:27;;;;;;;2.20;1.90;;;19.90;48.70;;;;;;5088613;27;43618;-60
2022/04/14 04:13:55;;;;;;;3.05;2.28;;;19.90;48.70;;;;;;5092641;27;43770;-59
2022/04/14 04:16:23;;;;;;;2.58;1.98;;;19.90;48.70;;;;;;5086988;27;43462;-60
2022/04/14 04:18:50;;;;;;;2.22;2.13;;;19.90;48.80;;;;;;5085493;27;43636;-60
2022/04/14 04:21:18;;;;;;;1.90;1.80;;;19.90;48.70;;;;;;5087665;27;43815;-60
2022/04/14 04:23:45;;;;;;;2.50;2.17;;;19.90;48.80;;;;;;5085005;27;43530;-60
2022/04/14 04:26:13;;;;;;;2.30;2.10;;;19.90;48.80;;;;;;5087895;27;43492;-60
2022/04/14 04:28:40;;;;;;;2.90;2.17;;;19.90;48.80;;;;;;5079794;27;43488;-60
2022/04/14 04:31:11;;;;;;;2.13;2.00;;;19.90;48.70;;;;;;5081978;27;44065;-60
2022/04/14 04:33:39;;;;;;;2.30;2.10;;;19.80;48.70;;;;;;5089392;27;43966;-60
2022/04/14 04:36:07;;;;;;;2.47;2.28;;;19.80;48.80;;;;;;5088581;27;43572;-60
2022/04/14 04:38:34;;;;;;;2.92;2.20;;;19.80;48.70;;;;;;5081374;28;43516;-60
2022/04/14 04:41:02;;;;;;;2.65;2.40;;;19.80;48.80;;;;;;5086219;27;43816;-59
2022/04/14 04:43:29;;;;;;;2.97;2.30;;;19.80;48.80;;;;;;5083284;27;43950;-59
2022/04/14 04:45:57;;;;;;;2.50;2.15;;;19.80;48.80;;;;;;5013714;28;43511;-60
2022/04/14 04:48:24;;;;;;;3.65;2.45;;;19.80;48.80;;;;;;4979887;28;43542;-59
2022/04/14 04:50:52;;;;;;;2.30;2.10;;;19.80;48.80;;;;;;4983714;28;43870;-60
2022/04/14 04:53:19;;;;;;;3.03;2.40;;;19.80;48.80;;;;;;4993295;28;43654;-60
2022/04/14 04:55:47;;;;;;;2.58;2.38;;;19.80;48.80;;;;;;4982136;28;43463;-59
2022/04/14 04:58:15;;;;;;;2.85;2.42;;;19.80;48.80;;;;;;4983114;28;43484;-60
2022/04/14 05:00:44;;;;;;;2.47;2.05;;;19.80;48.80;;;;;;4986489;28;43875;-60
2022/04/14 05:03:13;;;;;;;2.80;2.42;;;19.80;48.80;;;;;;4983542;28;43968;-60
2022/04/14 05:05:40;;;;;;;2.10;1.90;;;19.80;48.90;;;;;;4985115;27;44057;-60
2022/04/14 05:08:08;;;;;;;2.55;2.30;;;19.80;48.80;;;;;;4986448;28;43391;-61
2022/04/14 05:10:35;;;;;;;2.70;2.28;;;19.70;48.80;;;;;;4985510;28;44079;-60
2022/04/14 05:13:04;;;;;;;2.53;2.30;;;19.80;48.90;;;;;;4986477;28;43714;-60
2022/04/14 05:15:32;;;;;;;3.53;2.65;;;19.80;48.80;;;;;;4985910;28;43439;-60
2022/04/14 05:17:59;;;;;;;2.65;2.45;;;19.70;48.80;;;;;;5006281;28;43463;-60
2022/04/14 05:20:27;;;;;;;3.28;2.28;;;19.70;48.90;;;;;;4982716;28;44025;-59
2022/04/14 05:22:54;;;;;;;2.80;2.30;;;19.70;49.00;;;;;;4975198;28;43721;-60
2022/04/14 05:25:22;;;;;;;2.67;2.20;;;19.70;48.80;;;;;;5003542;28;43549;-60
2022/04/14 05:27:49;;;;;;;3.05;2.00;;;19.70;48.80;;;;;;4983726;28;43417;-61
2022/04/14 05:30:17;;;;;;;3.25;2.50;;;19.70;48.80;;;;;;5062530;27;44712;-60
2022/04/14 05:32:44;;;;;;;2.70;2.33;;;19.70;48.70;;;;;;5000601;28;43574;-60
2022/04/14 05:35:12;;;;;;;2.38;2.17;;;19.70;48.80;;;;;;4998681;28;43618;-60
2022/04/14 05:37:39;;;;;;;2.55;2.22;;;19.70;48.80;;;;;;4983070;28;43551;-60
2022/04/14 05:40:08;;;;;;;2.63;2.42;;;19.70;48.80;;;;;;5013897;28;44686;-60
2022/04/14 05:42:36;;;;;;;3.38;2.33;;;19.70;49.00;;;;;;5005785;28;43430;-60
2022/04/14 05:45:04;;;;;;;3.00;2.30;;;19.60;49.00;;;;;;4984950;28;43593;-60
2022/04/14 05:47:31;;;;;;;2.55;2.35;;;19.60;48.90;;;;;;4984898;28;43495;-60
2022/04/14 05:49:58;;;;;;;2.15;1.95;;;19.60;48.80;;;;;;4982799;28;44699;-60
2022/04/14 05:52:26;;;;;;;3.20;2.55;;;19.60;49.00;;;;;;5055848;28;43711;-61
2022/04/14 05:54:53;;;;;;;3.13;2.20;;;19.60;49.00;;;;;;5041111;28;43422;-60
2022/04/14 05:57:22;;;;;;;2.67;2.28;;;19.60;49.00;;;;;;4983185;28;43493;-60
2022/04/14 05:59:49;;;;;;;2.28;2.08;;;19.60;49.00;;;;;;4987012;28;44679;-61
2022/04/14 06:02:19;;;;;;;2.78;2.30;;;19.60;49.00;;;;;;4984176;28;43449;-59
2022/04/14 06:04:46;;;;;;;2.53;2.22;;;19.60;49.00;;;;;;4985379;28;43612;-60
2022/04/14 06:07:14;;;;;;;2.30;2.10;;;19.60;49.00;;;;;;4978370;28;43533;-60
2022/04/14 06:09:41;;;;;;;2.83;2.63;;;19.60;48.90;;;;;;4982037;28;43811;-59
2022/04/14 06:12:09;;;;;;;3.67;2.10;;;19.60;48.90;;;;;;4979819;28;43653;-59
2022/04/14 06:14:49;;;;;;;2.80;2.42;;;19.60;49.00;;;;;;4973322;28;43546;-59
2022/04/14 06:17:16;;;;;;;4.00;2.47;;;19.60;49.00;;;;;;5051846;27;43796;-59
2022/04/14 06:19:44;;;;;;;4.55;2.67;;;19.60;49.00;;;;;;4985420;28;44145;-60
2022/04/14 06:22:11;;;;;;;4.50;2.38;;;19.60;49.10;;;;;;4983875;28;43531;-61
2022/04/14 06:24:39;;;;;;;3.75;2.75;;;19.60;49.00;;;;;;4986638;28;44512;-59
2022/04/14 06:27:06;;;;;;;4.40;2.42;;;19.60;49.10;;;;;;4984466;28;43588;-60
2022/04/14 06:29:34;;;;;;;4.93;2.30;;;19.50;49.10;;;;;;4984165;28;43847;-60
2022/04/14 06:32:01;;;;;;;2.60;2.40;;;19.50;49.10;;;;;;4973136;28;43526;-60
2022/04/14 06:34:29;;;;;;;2.75;2.30;;;19.50;49.10;;;;;;4983021;28;43484;-60
2022/04/14 06:36:56;;;;;;;2.65;2.35;;;19.50;49.80;;;;;;4980933;28;43567;-60
2022/04/14 06:39:23;;;;;;;3.53;2.65;;;19.50;49.20;;;;;;4983614;28;43749;-59
2022/04/14 06:41:51;;;;;;;3.90;2.28;;;19.50;49.20;;;;;;4982029;28;43774;-60
2022/04/14 06:44:18;;;;;;;3.22;2.38;;;19.50;49.10;;;;;;4985889;28;43630;-60
2022/04/14 06:46:46;;;;;;;3.75;2.50;;;19.50;49.10;;;;;;5089541;27;43565;-60
2022/04/14 06:49:13;;;;;;;4.22;2.65;;;19.40;49.10;;;;;;5082876;27;43817;-59
2022/04/14 06:51:41;;;;;;;4.28;2.40;;;19.50;49.40;;;;;;5086773;27;43719;-60
2022/04/14 06:54:08;;;;;;;2.67;2.40;;;19.50;49.30;;;;;;5088385;27;43579;-59
2022/04/14 06:56:36;;;;;;;2.55;2.33;;;19.50;49.20;;;;;;5089081;27;43437;-60
2022/04/14 06:59:03;;;;;;;2.53;2.17;;;19.40;49.00;;;;;;5083187;27;43827;-60
2022/04/14 07:01:30;;;;;;;2.25;2.05;;;19.40;49.20;;;;;;5084680;27;43650;-60
2022/04/14 07:03:58;;;;;;;2.55;2.15;;;19.40;49.00;;;;;;5081373;27;43648;-60
2022/04/14 07:06:26;;;;;;;2.40;2.10;;;19.40;49.10;;;;;;5085269;27;43500;-60
2022/04/14 07:08:56;;;;;;;2.35;2.03;;;19.40;49.00;;;;;;5084871;27;44968;-60
2022/04/14 07:11:23;;;;;;;2.90;2.35;;;19.40;49.10;;;;;;5082859;27;44020;-63
2022/04/14 07:13:51;;;;;;;5.38;2.60;;;19.40;49.10;;;;;;5085531;27;43483;-62
2022/04/14 07:16:18;;;;;;;3.88;2.50;;;19.40;49.40;;;;;;5089072;27;43529;-61
2022/04/14 07:18:46;;;;;;;3.55;2.50;;;19.40;49.30;;;;;;5085183;27;44030;-62
2022/04/14 07:21:13;;;;;;;3.17;2.30;;;19.50;49.50;;;;;;5080832;27;43510;-62
2022/04/14 07:23:41;;;;;;;4.07;2.47;;;19.40;49.30;;;;;;5083253;27;43440;-62
2022/04/14 07:26:08;;;;;;;2.65;2.33;;;19.50;49.60;;;;;;5085373;27;43428;-62
2022/04/14 07:28:36;;;;;;;4.15;2.38;;;19.50;49.60;;;;;;5083748;27;43814;-62
2022/04/14 07:31:03;;;;;;;2.88;2.55;;;19.60;49.60;;;;;;5081361;27;43601;-62
2022/04/14 07:33:31;;;;;;;3.40;2.40;;;19.60;49.60;;;;;;5078106;27;43450;-62
2022/04/14 07:35:58;;;;;;;3.65;2.55;;;19.70;49.80;;;;;;5086152;27;43573;-62
2022/04/14 07:38:42;;;;;;;3.25;2.50;;;19.70;49.70;;;;;;5085253;27;44669;-61
2022/04/14 07:41:10;;;;;;;2.90;2.13;;;19.80;49.60;;;;;;5069022;28;43477;-62
2022/04/14 07:43:37;;;;;;;3.03;2.55;;;19.90;49.20;;;;;;5085250;27;43495;-62
2022/04/14 07:46:05;;;;;;;3.25;2.58;;;19.90;50.20;;;;;;5086702;27;43561;-62
2022/04/14 07:48:33;;;;;;;3.25;2.80;;;20.00;49.50;;;;;;5082879;27;44041;-61
2022/04/14 07:51:01;;;;;;;9.43;3.42;;;20.10;49.60;;;;;;5084320;27;43711;-62
2022/04/14 07:53:28;;;;;;;6.03;2.55;;;20.10;49.50;;;;;;5052904;27;43515;-62
2022/04/14 07:55:56;;;;;;;4.13;2.60;;;20.20;49.40;;;;;;5084972;27;43443;-61
2022/04/14 07:58:23;;;;;;;6.43;2.58;;;20.30;49.40;;;;;;5082425;27;44647;-61
2022/04/14 08:00:51;;;;;;;4.03;2.40;;;20.30;49.30;;;;;;5086307;27;43593;-61
2022/04/14 08:03:19;;;;;;;3.05;2.42;;;20.40;49.20;;;;;;5085925;27;43485;-61
2022/04/14 08:05:48;;;;;;;3.13;2.28;;;20.40;50.20;;;;;;5085998;27;43591;-62
2022/04/14 08:08:18;;;;;;;2.35;2.15;;;20.50;49.20;;;;;;5062868;27;43791;-60
2022/04/14 08:10:47;;;;;;;4.00;2.17;;;20.60;48.90;;;;;;5080758;27;43457;-60
2022/04/14 08:13:16;;;;;;;2.83;2.42;;;20.70;49.00;;;;;;5088734;27;43505;-62
2022/04/14 08:15:44;;;;;;;4.50;2.17;;;20.70;48.90;;;;;;5083178;27;43629;-60
2022/04/14 08:18:11;;;;;;;3.05;2.35;;;20.80;48.80;;;;;;5082962;27;44644;-61
2022/04/14 08:20:40;;;;;;;5.95;2.40;;;20.80;48.90;;;;;;5085913;27;43953;-61
2022/04/14 08:23:14;;;;;;;2.45;2.17;;;20.90;48.90;;;;;;5090019;27;43481;-61
2022/04/14 08:25:42;;;;;;;2.88;2.10;;;21.00;48.90;;;;;;5089441;27;43592;-61
2022/04/14 08:28:30;;;;;;;2.88;2.10;;;21.10;48.90;;;;;;5084457;27;44853;-61
2022/04/14 08:30:57;;;;;;;2.00;1.80;;;21.10;48.70;;;;;;5081975;27;43946;-60
2022/04/14 08:33:25;;;;;;;6.05;2.63;;;21.10;48.50;;;;;;5074566;27;43540;-61
2022/04/14 08:35:53;;;;;;;3.60;2.30;;;21.20;49.00;;;;;;5080246;27;43552;-59
2022/04/14 08:38:22;;;;;;;3.40;2.28;;;21.30;49.80;;;;;;5080617;27;44062;-60
2022/04/14 08:40:57;;;;;;;3.90;2.20;;;21.30;49.30;;;;;;5079791;27;43411;-61
2022/04/14 08:44:02;;;;;;;3.97;2.00;;;21.40;49.00;;;;;;5083976;27;43481;-61
2022/04/14 08:46:30;;;;;;;5.05;2.00;;;21.50;49.00;;;;;;5086030;27;43487;-61
2022/04/14 08:48:59;;;;;;;4.05;1.92;;;21.50;49.00;;;;;;5084462;27;45068;-60
2022/04/14 08:51:36;;;;;;;3.95;2.22;;;21.60;48.80;;;;;;5083478;27;43466;-60
2022/04/14 08:54:05;;;;;;;3.67;2.00;;;21.80;48.70;;;;;;5085182;27;43479;-60
2022/04/14 08:56:34;;;;;;;2.13;1.92;;;21.90;48.40;;;;;;5086082;27;43458;-60
2022/04/14 08:59:02;;;;;;;5.93;1.83;;;21.90;48.20;;;;;;5087156;27;44373;-61
2022/04/14 09:01:31;;;;;;;2.55;1.58;;;22.10;48.30;;;;;;5086381;27;43490;-60
2022/04/14 09:03:59;;;;;;;2.53;1.70;;;22.20;48.10;;;;;;5073836;28;43457;-60
2022/04/14 09:06:29;;;;;;;1.70;1.60;;;22.30;48.10;;;;;;5088249;27;43989;-61
2022/04/14 09:09:00;;;;;;;1.83;1.65;;;22.30;47.80;;;;;;5094981;27;43990;-61
2022/04/14 09:11:30;;;;;;;2.47;2.00;;;22.40;47.70;;;;;;5089005;27;43844;-59
2022/04/14 09:14:00;;;;;;;2.38;1.85;;;22.50;47.70;;;;;;5088375;27;43561;-61
2022/04/14 09:16:30;;;;;;;2.97;2.17;;;22.50;47.50;;;;;;5085415;27;43448;-59
2022/04/14 09:19:02;;;;;;;2.08;1.70;;;22.50;47.40;;;;;;5085495;27;43789;-59
2022/04/14 09:21:30;;;;;;;2.13;1.58;;;22.60;47.30;;;;;;5090142;27;43988;-60
2022/04/14 09:23:58;;;;;;;2.00;1.80;;;22.60;47.40;;;;;;5084829;27;43514;-61
2022/04/14 09:26:26;;;;;;;2.30;1.67;;;22.60;47.40;;;;;;5089878;27;43491;-60
2022/04/14 09:29:10;;;;;;;2.35;1.77;;;22.60;47.40;;;;;;5088907;27;44936;-60
2022/04/14 09:31:51;;;;;;;3.22;1.65;;;22.70;47.40;;;;;;5087295;27;44078;-61
2022/04/14 09:34:50;;;;;;;3.17;1.90;;;22.70;47.40;;;;;;5082058;27;43420;-60
2022/04/14 09:37:20;;;;;;;1.80;1.70;;;22.80;47.30;;;;;;5085620;27;43572;-60
2022/04/14 09:39:51;;;;;;;3.40;1.80;;;22.80;47.40;;;;;;5088880;27;44110;-60
2022/04/14 09:42:21;;;;;;;1.85;1.75;;;22.90;47.30;;;;;;5084755;27;43982;-60
2022/04/14 09:44:50;;;;;;;3.63;1.85;;;22.90;47.20;;;;;;5083529;27;43548;-61
2022/04/14 09:47:36;;;;;;;1.98;1.83;;;23.00;47.20;;;;;;5084918;27;43517;-61
2022/04/14 09:50:06;;;;;;;2.80;1.73;;;23.00;47.10;;;;;;5088776;27;44715;-61
2022/04/14 09:52:51;;;;;;;2.45;1.52;;;23.00;47.30;;;;;;5082217;27;44023;-61
2022/04/14 09:55:18;;;;;;;1.73;1.63;;;23.00;47.20;;;;;;5083153;27;43606;-61
2022/04/14 09:58:17;;;;;;;2.88;1.65;;;23.00;47.30;;;;;;5089180;27;43467;-61
2022/04/14 10:00:46;;;;;;;2.78;1.70;;;23.00;47.20;;;;;;5082610;27;44971;-61
2022/04/14 10:03:16;;;;;;;2.38;1.63;;;23.00;47.20;;;;;;5087344;27;43604;-61
2022/04/14 10:05:46;;;;;;;1.73;1.27;;;23.00;47.20;;;;;;5085894;27;43812;-62
2022/04/14 10:08:14;;;;;;;2.40;1.52;;;22.90;47.30;;;;;;5083116;27;43437;-61
2022/04/14 10:10:47;;;;;;;1.58;1.35;;;22.90;47.30;;;;;;5085189;27;44719;-61
2022/04/14 10:13:18;;;;;;;2.03;1.85;;;22.90;47.50;;;;;;5068668;27;43982;-61
2022/04/14 10:15:53;;;;;;;2.05;1.58;;;22.80;47.50;;;;;;5087738;27;43532;-61
2022/04/14 10:18:21;;;;;;;1.77;1.65;;;22.80;47.60;;;;;;5081585;27;43562;-61
2022/04/14 10:20:48;;;;;;;1.90;1.70;;;22.80;47.60;;;;;;5086181;27;43998;-61
2022/04/14 10:23:16;;;;;;;2.00;1.80;;;22.70;47.70;;;;;;5083687;27;44292;-62
2022/04/14 10:25:44;;;;;;;2.20;1.98;;;22.70;47.80;;;;;;5086182;27;43450;-61
2022/04/14 10:28:16;;;;;;;2.13;1.92;;;22.70;47.90;;;;;;5084426;27;43412;-61
2022/04/14 10:30:47;;;;;;;2.40;2.10;;;22.70;48.00;;;;;;5084321;27;43753;-61
2022/04/14 10:33:20;;;;;;;2.33;2.13;;;22.60;48.10;;;;;;5086839;27;43721;-61
2022/04/14 10:35:49;;;;;;;2.00;1.80;;;22.60;48.30;;;;;;5059484;27;43550;-61
2022/04/14 10:38:35;;;;;;;4.05;1.85;;;22.60;48.10;;;;;;5082104;27;43646;-61
2022/04/14 10:41:26;;;;;;;4.07;1.90;;;22.60;48.20;;;;;;5086946;27;44987;-61
2022/04/14 10:43:58;;;;;;;;;;;22.50;48.20;;;;;;5067124;28;43684;-62
2022/04/14 10:46:48;;;;;;;2.92;2.28;;;22.50;48.80;;;;;;5085508;27;43469;-61
2022/04/14 10:49:22;;;;;;;3.78;1.90;;;22.50;48.50;;;;;;5084191;27;43516;-61
2022/04/14 10:51:52;;;;;;;4.32;2.13;;;22.50;48.50;;;;;;5085978;27;43788;-61
2022/04/14 10:54:20;;;;;;;1.67;1.55;;;22.50;48.50;;;;;;5083441;27;43526;-61
2022/04/14 10:56:50;;;;;;;2.15;1.60;;;22.50;48.40;;;;;;5097228;27;43486;-60
2022/04/14 10:59:19;;;;;;;2.00;1.70;;;22.50;48.20;;;;;;5081834;27;43451;-61
2022/04/14 11:01:52;;;;;;;2.53;1.90;;;22.50;48.40;;;;;;5064116;27;43788;-61
2022/04/14 11:04:42;;;;;;;2.65;1.60;;;22.50;48.30;;;;;;5078560;28;43565;-61
2022/04/14 11:07:13;;;;;;;1.80;1.70;;;22.50;48.30;;;;;;5064241;28;43555;-61
2022/04/14 11:09:48;;;;;;;2.75;1.70;;;22.50;48.30;;;;;;5079618;27;43604;-61
2022/04/14 11:12:18;;;;;;;3.10;1.60;;;22.50;48.40;;;;;;5085214;27;45024;-61
2022/04/14 11:14:49;;;;;;;1.70;1.50;;;22.50;48.30;;;;;;5084684;27;43512;-61
2022/04/14 11:20:37;;;;;;;2.83;1.60;;;22.50;48.30;;;;;;5073212;27;43407;-61
2022/04/14 11:23:26;;;;;;;1.45;1.20;;;22.50;48.50;;;;;;5069324;27;43938;-60
2022/04/14 11:26:03;;;;;;;2.53;1.55;;;22.50;48.20;;;;;;5081546;27;43462;-61
2022/04/14 11:28:33;;;;;;;2.65;1.58;;;22.60;48.30;;;;;;5077692;27;43526;-61
2022/04/14 11:31:01;;;;;;;1.75;1.42;;;22.60;48.30;;;;;;5082476;27;43433;-61
2022/04/14 11:33:33;;;;;;;1.85;1.52;;;22.60;48.30;;;;;;5082240;27;44038;-61
2022/04/14 11:36:10;;;;;;;1.92;1.50;;;22.60;48.90;;;;;;5075455;27;43780;-61
2022/04/14 11:39:05;;;;;;;1.95;1.60;;;22.60;48.20;;;;;;5079403;27;43435;-61
2022/04/14 11:41:46;;;;;;;1.95;1.70;;;22.60;48.10;;;;;;5085971;27;43496;-61
2022/04/14 11:44:30;;;;;;;1.95;1.33;;;22.70;48.20;;;;;;5085825;27;43802;-61
2022/04/14 11:47:00;;;;;;;2.05;1.25;;;22.70;48.30;;;;;;5082765;27;43917;-61
2022/04/14 11:49:32;;;;;;;2.15;1.48;;;22.70;48.10;;;;;;5081786;28;43457;-61
2022/04/14 11:52:05;;;;;;;1.77;1.52;;;22.70;48.10;;;;;;5078571;27;43542;-60
2022/04/14 11:54:37;;;;;;;2.03;1.80;;;22.70;48.10;;;;;;5084470;27;44139;-61
2022/04/14 11:57:13;;;;;;;2.33;1.70;;;22.70;48.10;;;;;;5079611;27;43476;-61
2022/04/14 11:59:46;;;;;;;2.35;1.60;;;22.70;48.10;;;;;;5082530;27;43498;-61
2022/04/14 12:02:22;;;;;;;1.85;1.50;;;22.70;48.10;;;;;;5075941;27;43588;-61
2022/04/14 12:04:54;;;;;;;3.15;1.92;;;22.70;48.10;;;;;;5080821;27;44616;-60
2022/04/14 12:07:29;;;;;;;2.78;1.52;;;22.70;48.50;;;;;;5082366;27;43981;-60
2022/04/14 12:10:07;;;;;;;2.15;1.60;;;22.60;48.10;;;;;;5082886;27;43571;-61
2022/04/14 12:12:37;;;;;;;1.85;1.50;;;22.60;48.10;;;;;;5077364;27;43551;-61
2022/04/14 12:15:06;;;;;;;2.50;1.60;;;22.60;48.10;;;;;;5068943;27;44051;-62
2022/04/14 12:17:36;;;;;;;2.17;1.50;;;22.60;48.20;;;;;;5083631;27;43688;-61
2022/04/14 12:20:06;;;;;;;1.60;1.50;;;22.60;48.90;;;;;;5081559;27;43420;-61
2022/04/14 12:22:35;;;;;;;1.67;1.25;;;22.60;48.30;;;;;;5082210;27;43507;-62
2022/04/14 12:25:05;;;;;;;3.15;1.73;;;22.60;48.10;;;;;;5082230;27;45138;-60
2022/04/14 12:27:42;;;;;;;2.08;1.30;;;22.50;48.20;;;;;;5084045;27;43766;-61
2022/04/14 12:30:11;;;;;;;3.10;1.50;;;22.50;48.20;;;;;;5081485;27;43532;-62
2022/04/14 12:32:44;;;;;;;2.63;1.60;;;22.40;48.30;;;;;;5085677;27;43605;-61
2022/04/14 12:35:32;;;;;;;1.98;1.42;;;22.40;48.50;;;;;;5086132;27;43777;-61
2022/04/14 12:38:17;;;;;;;2.03;1.20;;;22.30;48.40;;;;;;5076482;27;43671;-61
2022/04/14 12:41:04;;;;;;;3.25;1.90;;;22.30;48.50;;;;;;5084370;27;43457;-61
2022/04/14 12:43:37;;;;;;;1.60;1.50;;;22.30;48.50;;;;;;5086352;27;43479;-61
2022/04/14 12:46:27;;;;;;;1.73;1.52;;;22.30;48.60;;;;;;5044738;27;44985;-61
2022/04/14 12:49:03;;;;;;;3.13;1.50;;;22.30;48.80;;;;;;4983888;28;43537;-61
2022/04/14 12:51:56;;;;;;;1.83;1.17;;;22.20;48.70;;;;;;4985064;28;43653;-61
2022/04/14 12:54:24;;;;;;;1.33;1.20;;;22.20;48.70;;;;;;4983242;28;43474;-61
2022/04/14 12:57:04;;;;;;;2.00;1.38;;;22.20;48.80;;;;;;4991751;28;44932;-61
2022/04/14 12:59:33;;;;;;;1.27;1.17;;;22.20;48.80;;;;;;5057908;27;43531;-61
2022/04/14 13:02:07;;;;;;;2.92;1.50;;;22.20;48.70;;;;;;4980737;28;44118;-61
2022/04/14 13:04:40;;;;;;;2.35;1.30;;;22.20;48.70;;;;;;5070630;27;43547;-61
2022/04/14 13:07:16;;;;;;;1.45;1.30;;;22.20;48.80;;;;;;4984230;28;43788;-61
2022/04/14 13:10:04;;;;;;;1.35;1.20;;;22.20;48.80;;;;;;4984173;28;43955;-61